createdAt,value
2022-08-31T00:00:12.851Z,18.80
2022-08-31T00:04:16.073Z,18.70
2022-08-31T00:08:53.401Z,18.60
2022-08-31T00:12:58.051Z,18.60
2022-08-31T00:17:32.121Z,18.50
2022-08-31T00:21:35.316Z,18.50
2022-08-31T00:25:41.229Z,18.40
2022-08-31T00:29:45.930Z,18.40
2022-08-31T00:33:52.694Z,18.40
2022-08-31T00:37:56.144Z,18.30
2022-08-31T00:41:59.649Z,18.30
2022-08-31T00:46:04.329Z,18.20
2022-08-31T00:55:30.394Z,18.20
2022-08-31T00:59:58.713Z,18.10
2022-08-31T01:04:03.637Z,18.10
2022-08-31T01:08:08.155Z,18.20
2022-08-31T01:12:15.207Z,18.10
2022-08-31T01:16:23.752Z,18.20
2022-08-31T01:21:01.418Z,18.10
2022-08-31T01:25:07.037Z,18.10
2022-08-31T01:29:40.748Z,18.00
2022-08-31T01:33:44.227Z,18.00
2022-08-31T01:37:47.341Z,18.00
2022-08-31T01:41:52.396Z,18.10
2022-08-31T01:45:55.569Z,18.10
2022-08-31T01:49:58.751Z,18.10
2022-08-31T01:54:02.573Z,18.10
2022-08-31T01:58:07.955Z,18.00
2022-08-31T02:02:11.524Z,18.00
2022-08-31T02:06:48.915Z,17.90
2022-08-31T02:11:22.577Z,17.90
2022-08-31T02:16:00.986Z,17.80
2022-08-31T02:20:34.849Z,17.80
2022-08-31T02:25:11.811Z,17.80
2022-08-31T02:29:50.580Z,17.70
2022-08-31T02:34:26.759Z,17.70
2022-08-31T02:38:30.016Z,17.70
2022-08-31T02:42:52.085Z,17.70
2022-08-31T02:46:56.243Z,17.70
2022-08-31T02:51:34.908Z,17.60
2022-08-31T02:55:38.194Z,17.60
2022-08-31T02:59:41.333Z,17.60
2022-08-31T03:04:15.260Z,17.60
2022-08-31T03:08:20.041Z,17.60
2022-08-31T03:12:23.189Z,17.60
2022-08-31T03:16:26.391Z,17.50
2022-08-31T03:20:30.306Z,17.50
2022-08-31T03:25:04.192Z,17.50
2022-08-31T03:29:43.270Z,17.40
2022-08-31T03:33:46.366Z,17.40
2022-08-31T03:38:22.982Z,17.30
2022-08-31T03:42:26.931Z,17.30
2022-08-31T03:47:00.517Z,17.20
2022-08-31T03:51:03.625Z,17.20
2022-08-31T03:55:08.990Z,17.20
2022-08-31T03:59:42.803Z,17.20
2022-08-31T04:04:20.992Z,17.20
2022-08-31T04:08:25.837Z,17.20
2022-08-31T04:12:59.439Z,17.20
2022-08-31T04:17:36.514Z,17.10
2022-08-31T04:21:45.405Z,17.10
2022-08-31T04:25:48.580Z,17.10
2022-08-31T04:30:22.574Z,17.10
2022-08-31T04:34:25.713Z,17.10
2022-08-31T04:39:02.613Z,17.20
2022-08-31T04:43:07.597Z,17.20
2022-08-31T04:47:42.019Z,17.30
2022-08-31T04:52:16.043Z,17.30
2022-08-31T04:56:22.331Z,17.30
2022-08-31T05:00:57.814Z,17.30
2022-08-31T05:05:01.587Z,17.30
2022-08-31T05:09:38.474Z,17.40
2022-08-31T05:13:41.966Z,17.40
2022-08-31T05:18:18.209Z,17.40
2022-08-31T05:22:54.961Z,17.40
2022-08-31T05:26:58.172Z,17.50
2022-08-31T05:31:01.448Z,17.60
2022-08-31T05:35:40.004Z,17.70
2022-08-31T05:39:43.107Z,17.80
2022-08-31T05:44:21.412Z,17.80
2022-08-31T05:48:33.678Z,17.80
2022-08-31T05:52:38.258Z,17.80
2022-08-31T05:56:43.059Z,17.70
2022-08-31T06:01:17.224Z,17.60
2022-08-31T06:05:21.126Z,17.60
2022-08-31T06:09:55.287Z,17.60
2022-08-31T06:14:02.403Z,17.70
2022-08-31T06:18:38.433Z,17.80
2022-08-31T06:23:12.591Z,17.90
2022-08-31T06:27:50.541Z,17.90
2022-08-31T06:32:26.346Z,18.00
2022-08-31T06:36:59.822Z,18.00
2022-08-31T06:41:37.855Z,18.10
2022-08-31T06:46:11.826Z,18.30
2022-08-31T06:50:17.961Z,18.40
2022-08-31T06:54:49.698Z,18.50
2022-08-31T06:59:28.772Z,18.60
2022-08-31T07:03:34.523Z,18.60
2022-08-31T07:07:39.894Z,18.70
2022-08-31T07:12:14.058Z,18.70
2022-08-31T07:16:51.373Z,18.70
2022-08-31T07:20:54.490Z,18.80
2022-08-31T07:25:02.417Z,18.80
2022-08-31T07:29:40.673Z,18.90
2022-08-31T07:34:11.442Z,18.90
2022-08-31T07:38:32.193Z,19.00
2022-08-31T07:42:38.871Z,19.00
2022-08-31T07:46:42.026Z,19.20
2022-08-31T07:50:46.868Z,19.30
2022-08-31T07:55:21.645Z,19.40
2022-08-31T07:59:26.111Z,19.50
2022-08-31T08:04:02.186Z,19.70
2022-08-31T08:08:13.577Z,19.90
2022-08-31T08:12:22.480Z,19.90
2022-08-31T08:16:58.745Z,20.10
2022-08-31T08:21:32.675Z,20.30
2022-08-31T08:26:21.301Z,20.40
2022-08-31T08:30:46.714Z,20.60
2022-08-31T08:35:24.056Z,20.80
2022-08-31T08:40:01.629Z,21.00
2022-08-31T08:44:34.278Z,21.30
2022-08-31T08:49:14.388Z,21.50
2022-08-31T08:53:17.628Z,21.60
2022-08-31T08:57:56.211Z,21.70
2022-08-31T09:02:32.567Z,21.60
2022-08-31T09:07:11.809Z,21.60
2022-08-31T09:11:46.702Z,21.70
2022-08-31T09:16:04.524Z,21.80
2022-08-31T09:20:28.394Z,21.80
2022-08-31T09:24:32.613Z,21.90
2022-08-31T09:28:37.938Z,21.90
2022-08-31T09:33:19.606Z,22.00
2022-08-31T09:37:25.522Z,22.10
2022-08-31T09:42:04.176Z,22.00
2022-08-31T09:46:10.015Z,21.90
2022-08-31T09:50:45.304Z,21.90
2022-08-31T09:55:25.267Z,22.00
2022-08-31T09:59:56.178Z,22.10
2022-08-31T10:04:20.593Z,22.40
2022-08-31T10:08:39.596Z,22.60
2022-08-31T10:12:49.691Z,23.00
2022-08-31T10:17:23.882Z,23.50
2022-08-31T10:21:56.085Z,23.60
2022-08-31T10:26:03.516Z,23.70
2022-08-31T10:30:34.256Z,23.70
2022-08-31T10:34:59.992Z,23.80
2022-08-31T10:39:03.309Z,23.90
2022-08-31T10:43:45.174Z,24.00
2022-08-31T10:47:50.324Z,24.40
2022-08-31T10:52:03.264Z,24.80
2022-08-31T10:56:37.449Z,24.90
2022-08-31T11:00:49.598Z,24.90
2022-08-31T11:05:02.269Z,24.80
2022-08-31T11:09:32.818Z,24.80
2022-08-31T11:14:03.512Z,24.70
2022-08-31T11:18:36.319Z,24.60
2022-08-31T11:23:26.967Z,24.50
2022-08-31T11:27:54.313Z,24.70
2022-08-31T11:32:01.042Z,25.10
2022-08-31T11:36:08.979Z,25.50
2022-08-31T11:41:00.864Z,25.40
2022-08-31T11:45:10.921Z,25.20
2022-08-31T11:49:38.814Z,25.00
2022-08-31T11:59:20.599Z,24.20
2022-08-31T12:03:44.890Z,23.90
2022-08-31T12:07:49.562Z,23.60
2022-08-31T12:12:30.824Z,22.10
2022-08-31T12:16:47.071Z,21.10
2022-08-31T12:21:16.458Z,20.70
2022-08-31T12:25:29.018Z,20.50
2022-08-31T12:30:08.746Z,20.10
2022-08-31T12:34:31.199Z,19.90
2022-08-31T12:39:13.578Z,19.70
2022-08-31T12:43:46.182Z,19.50
2022-08-31T12:48:01.439Z,19.30
2022-08-31T12:52:33.529Z,19.10
2022-08-31T12:57:08.054Z,19.10
2022-08-31T13:01:41.418Z,18.90
2022-08-31T13:06:17.137Z,18.80
2022-08-31T13:10:50.901Z,18.70
2022-08-31T13:15:29.563Z,18.70
2022-08-31T13:19:35.707Z,18.80
2022-08-31T13:24:10.351Z,18.70
2022-08-31T13:28:30.593Z,18.70
2022-08-31T13:33:22.293Z,18.70
2022-08-31T13:37:30.097Z,18.70
2022-08-31T13:42:05.412Z,18.70
2022-08-31T13:46:43.141Z,18.70
2022-08-31T13:51:19.672Z,18.70
2022-08-31T14:00:42.253Z,18.60
2022-08-31T14:05:28.590Z,18.50
2022-08-31T14:09:53.290Z,18.50
2022-08-31T14:14:29.963Z,18.50
2022-08-31T14:19:04.047Z,18.40
2022-08-31T14:23:42.156Z,18.40
2022-08-31T14:28:17.555Z,18.40
2022-08-31T14:32:51.590Z,18.40
2022-08-31T14:37:33.262Z,18.50
2022-08-31T14:41:36.405Z,18.70
2022-08-31T14:46:13.155Z,18.80
2022-08-31T14:50:51.879Z,18.80
2022-08-31T14:55:00.648Z,18.80
2022-08-31T14:59:32.507Z,18.70
2022-08-31T15:04:06.875Z,18.60
2022-08-31T15:08:45.130Z,18.50
2022-08-31T15:13:23.650Z,18.30
2022-08-31T15:17:57.543Z,18.10
2022-08-31T15:22:35.339Z,18.00
2022-08-31T15:27:15.231Z,17.90
2022-08-31T15:31:23.681Z,17.80
2022-08-31T15:36:02.572Z,17.80
2022-08-31T15:40:07.265Z,17.80
2022-08-31T15:44:11.865Z,17.90
2022-08-31T15:48:48.895Z,18.00
2022-08-31T15:52:55.878Z,18.10
2022-08-31T15:56:58.999Z,18.10
2022-08-31T16:01:38.031Z,18.10
2022-08-31T16:06:12.271Z,18.00
2022-08-31T16:10:49.420Z,18.00
2022-08-31T16:15:29.076Z,18.00
2022-08-31T16:20:05.439Z,18.10
2022-08-31T16:24:39.813Z,18.00
2022-08-31T16:29:14.966Z,18.00
2022-08-31T16:33:55.366Z,18.00
2022-08-31T16:38:31.075Z,18.00
2022-08-31T16:43:05.318Z,17.90
2022-08-31T16:47:42.559Z,17.80
2022-08-31T16:52:21.426Z,17.70
2022-08-31T16:56:58.092Z,17.60
2022-08-31T17:01:33.154Z,17.60
2022-08-31T17:06:07.090Z,17.70
2022-08-31T17:10:43.995Z,17.70
2022-08-31T17:15:25.395Z,17.70
2022-08-31T17:19:56.655Z,17.70
2022-08-31T17:24:35.872Z,17.70
2022-08-31T17:29:09.965Z,17.60
2022-08-31T17:33:46.707Z,17.60
2022-08-31T17:38:25.502Z,17.50
2022-08-31T17:43:05.673Z,17.40
2022-08-31T17:47:36.432Z,17.40
2022-08-31T17:52:13.046Z,17.40
2022-08-31T17:56:54.040Z,17.40
2022-08-31T18:01:30.313Z,17.30
2022-08-31T18:06:01.591Z,17.30
2022-08-31T18:10:39.225Z,17.20
2022-08-31T18:15:17.322Z,17.20
2022-08-31T18:19:48.379Z,17.20
2022-08-31T18:24:25.626Z,17.20
2022-08-31T18:29:04.115Z,17.20
2022-08-31T18:33:14.872Z,17.20
2022-08-31T18:37:21.094Z,17.20
2022-08-31T18:41:43.828Z,17.20
2022-08-31T18:45:49.614Z,17.20
2022-08-31T18:50:35.024Z,17.20
2022-08-31T18:55:02.306Z,17.20
2022-08-31T18:59:37.089Z,17.20
2022-08-31T19:04:17.623Z,17.20
2022-08-31T19:08:50.607Z,17.20
2022-08-31T19:13:26.292Z,17.20
2022-08-31T19:17:29.537Z,17.10
2022-08-31T19:22:07.322Z,17.20
2022-08-31T19:26:12.197Z,17.20
2022-08-31T19:30:47.691Z,17.20
2022-08-31T19:35:21.197Z,17.20
2022-08-31T19:39:58.180Z,17.20
2022-08-31T19:44:08.138Z,17.10
2022-08-31T19:48:11.962Z,17.10
2022-08-31T19:52:49.176Z,17.10
2022-08-31T20:02:09.197Z,17.00
2022-08-31T20:06:43.231Z,17.00
2022-08-31T20:10:47.371Z,17.00
2022-08-31T20:15:21.185Z,17.00
2022-08-31T20:19:29.940Z,17.10
2022-08-31T20:24:03.015Z,17.00
2022-08-31T20:28:37.539Z,17.00
2022-08-31T20:32:41.383Z,17.10
2022-08-31T20:37:18.410Z,17.10
2022-08-31T20:41:23.035Z,17.10
2022-08-31T20:45:26.141Z,17.10
2022-08-31T20:50:02.938Z,17.10
2022-08-31T20:54:06.537Z,17.20
2022-08-31T21:03:26.858Z,17.10
2022-08-31T21:07:30.154Z,17.00
2022-08-31T21:11:36.551Z,17.00
2022-08-31T21:15:45.084Z,17.00
2022-08-31T21:20:20.882Z,17.10
2022-08-31T21:24:24.015Z,17.10
2022-08-31T21:28:29.254Z,17.20
2022-08-31T21:32:32.769Z,17.30
2022-08-31T21:36:38.675Z,17.30
2022-08-31T21:40:48.722Z,17.30
2022-08-31T21:45:16.421Z,17.30
2022-08-31T21:49:20.297Z,17.30
2022-08-31T21:53:25.861Z,17.30
2022-08-31T21:57:28.999Z,17.10
2022-08-31T22:01:33.921Z,17.00
2022-08-31T22:06:07.444Z,16.90
2022-08-31T22:10:12.304Z,16.80
2022-08-31T22:14:17.824Z,16.70
2022-08-31T22:19:00.172Z,16.60
2022-08-31T22:22:44.092Z,16.60
2022-08-31T22:26:52.506Z,16.60
2022-08-31T22:30:56.238Z,16.60
2022-08-31T22:34:59.562Z,16.50
2022-08-31T22:39:04.248Z,16.50
2022-08-31T22:43:09.490Z,16.50
2022-08-31T22:47:13.387Z,16.50
2022-08-31T22:51:48.594Z,16.50
2022-08-31T22:55:51.874Z,16.50
2022-08-31T22:59:58.607Z,16.60
2022-08-31T23:04:05.547Z,16.60
2022-08-31T23:08:09.834Z,16.60
2022-08-31T23:12:13.078Z,16.60
2022-08-31T23:16:18.181Z,16.60
2022-08-31T23:20:52.863Z,16.60
2022-08-31T23:24:57.949Z,16.60
2022-08-31T23:29:01.841Z,16.60
2022-08-31T23:33:07.017Z,16.60
2022-08-31T23:37:11.556Z,16.60
2022-08-31T23:41:14.718Z,16.60
2022-08-31T23:45:18.863Z,16.60
2022-08-31T23:49:23.466Z,16.60
2022-08-31T23:53:28.216Z,16.60
2022-08-31T23:57:33.493Z,16.60
